sensor_id;sensor_type;location;lat;lon;timestamp;temperature;humidity
65235;DHT22;51820;48.374;10.930;2023-02-28T00:00:06;1.10;56.50
65235;DHT22;51820;48.374;10.930;2023-02-28T00:05:07;0.80;55.90
65235;DHT22;51820;48.374;10.930;2023-02-28T00:10:06;3.20;57.60
65235;DHT22;51820;48.374;10.930;2023-02-28T00:12:35;0.90;56.40
65235;DHT22;51820;48.374;10.930;2023-02-28T00:15:08;0.90;56.30
65235;DHT22;51820;48.374;10.930;2023-02-28T00:20:06;0.90;56.50
65235;DHT22;51820;48.374;10.930;2023-02-28T00:22:38;0.90;55.90
65235;DHT22;51820;48.374;10.930;2023-02-28T00:25:07;0.90;56.10
65235;DHT22;51820;48.374;10.930;2023-02-28T00:30:10;0.90;56.10
65235;DHT22;51820;48.374;10.930;2023-02-28T00:35:08;0.10;56.00
65235;DHT22;51820;48.374;10.930;2023-02-28T00:40:07;-1.60;89.80
65235;DHT22;51820;48.374;10.930;2023-02-28T00:45:07;2.70;90.70
65235;DHT22;51820;48.374;10.930;2023-02-28T00:50:07;4.10;92.20
65235;DHT22;51820;48.374;10.930;2023-02-28T01:00:04;0.70;56.90
65235;DHT22;51820;48.374;10.930;2023-02-28T01:02:33;0.70;56.90
65235;DHT22;51820;48.374;10.930;2023-02-28T01:19:57;0.60;57.00
65235;DHT22;51820;48.374;10.930;2023-02-28T01:37:19;0.60;57.20
65235;DHT22;51820;48.374;10.930;2023-02-28T01:45:03;1.50;91.80
65235;DHT22;51820;48.374;10.930;2023-02-28T01:47:38;0.50;57.30
65235;DHT22;51820;48.374;10.930;2023-02-28T01:50:11;0.50;57.20
65235;DHT22;51820;48.374;10.930;2023-02-28T01:52:42;0.50;57.30
65235;DHT22;51820;48.374;10.930;2023-02-28T01:57:42;0.50;57.20
65235;DHT22;51820;48.374;10.930;2023-02-28T02:00:16;-1.60;56.10
65235;DHT22;51820;48.374;10.930;2023-02-28T02:02:54;0.50;57.20
65235;DHT22;51820;48.374;10.930;2023-02-28T02:05:25;0.40;57.30
65235;DHT22;51820;48.374;10.930;2023-02-28T02:07:57;0.50;57.70
65235;DHT22;51820;48.374;10.930;2023-02-28T02:10:32;0.40;57.40
65235;DHT22;51820;48.374;10.930;2023-02-28T02:13:11;0.40;57.50
65235;DHT22;51820;48.374;10.930;2023-02-28T02:15:46;0.40;58.30
65235;DHT22;51820;48.374;10.930;2023-02-28T02:18:26;0.40;57.50
65235;DHT22;51820;48.374;10.930;2023-02-28T02:21:22;0.40;57.70
65235;DHT22;51820;48.374;10.930;2023-02-28T02:27:25;0.30;57.90
65235;DHT22;51820;48.374;10.930;2023-02-28T02:30:27;0.30;58.10
65235;DHT22;51820;48.374;10.930;2023-02-28T02:33:21;0.30;58.40
65235;DHT22;51820;48.374;10.930;2023-02-28T02:35:56;0.30;58.80
65235;DHT22;51820;48.374;10.930;2023-02-28T02:38:33;0.30;58.30
65235;DHT22;51820;48.374;10.930;2023-02-28T02:41:08;0.30;58.50
65235;DHT22;51820;48.374;10.930;2023-02-28T02:43:44;0.40;58.60
65235;DHT22;51820;48.374;10.930;2023-02-28T02:46:20;0.30;58.70
65235;DHT22;51820;48.374;10.930;2023-02-28T02:48:50;0.30;58.80
65235;DHT22;51820;48.374;10.930;2023-02-28T02:51:22;0.30;58.80
65235;DHT22;51820;48.374;10.930;2023-02-28T02:53:55;0.30;59.00
65235;DHT22;51820;48.374;10.930;2023-02-28T02:56:27;0.30;58.90
65235;DHT22;51820;48.374;10.930;2023-02-28T02:59:01;-2.30;57.80
65235;DHT22;51820;48.374;10.930;2023-02-28T03:01:31;0.30;59.10
65235;DHT22;51820;48.374;10.930;2023-02-28T03:04:03;0.30;59.10
65235;DHT22;51820;48.374;10.930;2023-02-28T03:06:33;0.30;59.60
65235;DHT22;51820;48.374;10.930;2023-02-28T03:09:02;0.30;59.30
65235;DHT22;51820;48.374;10.930;2023-02-28T03:14:12;0.30;59.30
65235;DHT22;51820;48.374;10.930;2023-02-28T03:17:09;0.30;59.40
65235;DHT22;51820;48.374;10.930;2023-02-28T03:19:49;0.30;59.50
65235;DHT22;51820;48.374;10.930;2023-02-28T03:22:47;0.30;59.60
65235;DHT22;51820;48.374;10.930;2023-02-28T03:25:27;0.30;59.70
65235;DHT22;51820;48.374;10.930;2023-02-28T03:28:03;0.30;59.80
65235;DHT22;51820;48.374;10.930;2023-02-28T03:30:39;0.30;60.00
65235;DHT22;51820;48.374;10.930;2023-02-28T03:33:13;0.30;59.90
65235;DHT22;51820;48.374;10.930;2023-02-28T03:35:43;0.30;59.90
65235;DHT22;51820;48.374;10.930;2023-02-28T03:38:20;0.50;60.10
65235;DHT22;51820;48.374;10.930;2023-02-28T03:40:53;0.40;60.00
65235;DHT22;51820;48.374;10.930;2023-02-28T03:43:28;0.40;60.00
65235;DHT22;51820;48.374;10.930;2023-02-28T03:45:59;0.40;60.00
65235;DHT22;51820;48.374;10.930;2023-02-28T03:48:34;0.30;60.60
65235;DHT22;51820;48.374;10.930;2023-02-28T03:51:06;0.40;60.10
65235;DHT22;51820;48.374;10.930;2023-02-28T03:53:42;0.30;60.80
65235;DHT22;51820;48.374;10.930;2023-02-28T03:56:14;0.40;60.40
65235;DHT22;51820;48.374;10.930;2023-02-28T03:58:47;0.40;60.50
65235;DHT22;51820;48.374;10.930;2023-02-28T04:01:21;0.40;60.20
65235;DHT22;51820;48.374;10.930;2023-02-28T04:06:22;0.40;60.20
65235;DHT22;51820;48.374;10.930;2023-02-28T04:08:52;0.40;60.20
65235;DHT22;51820;48.374;10.930;2023-02-28T04:11:23;0.40;60.40
65235;DHT22;51820;48.374;10.930;2023-02-28T04:21:33;0.40;60.70
65235;DHT22;51820;48.374;10.930;2023-02-28T04:24:04;0.40;60.10
65235;DHT22;51820;48.374;10.930;2023-02-28T04:26:34;0.40;60.80
65235;DHT22;51820;48.374;10.930;2023-02-28T04:29:05;0.40;60.30
65235;DHT22;51820;48.374;10.930;2023-02-28T04:39:04;0.40;60.40
65235;DHT22;51820;48.374;10.930;2023-02-28T04:56:25;0.40;60.70
65235;DHT22;51820;48.374;10.930;2023-02-28T05:01:24;0.40;60.70
65235;DHT22;51820;48.374;10.930;2023-02-28T05:03:55;0.40;60.70
65235;DHT22;51820;48.374;10.930;2023-02-28T05:06:25;0.40;60.70
65235;DHT22;51820;48.374;10.930;2023-02-28T05:11:29;0.40;60.80
65235;DHT22;51820;48.374;10.930;2023-02-28T05:14:06;0.40;60.70
65235;DHT22;51820;48.374;10.930;2023-02-28T05:19:09;0.10;63.20
65235;DHT22;51820;48.374;10.930;2023-02-28T05:21:50;0.30;60.90
65235;DHT22;51820;48.374;10.930;2023-02-28T05:26:53;0.30;61.00
65235;DHT22;51820;48.374;10.930;2023-02-28T05:29:22;0.30;61.00
65235;DHT22;51820;48.374;10.930;2023-02-28T05:36:49;0.40;61.00
65235;DHT22;51820;48.374;10.930;2023-02-28T05:44:18;0.30;60.90
65235;DHT22;51820;48.374;10.930;2023-02-28T05:49:18;0.30;60.90
65235;DHT22;51820;48.374;10.930;2023-02-28T06:01:48;0.30;61.20
65235;DHT22;51820;48.374;10.930;2023-02-28T06:04:18;0.30;61.20
65235;DHT22;51820;48.374;10.930;2023-02-28T06:16:52;0.30;61.10
65235;DHT22;51820;48.374;10.930;2023-02-28T06:21:53;0.30;61.20
65235;DHT22;51820;48.374;10.930;2023-02-28T06:24:22;0.30;61.20
65235;DHT22;51820;48.374;10.930;2023-02-28T06:34:17;0.30;61.10
65235;DHT22;51820;48.374;10.930;2023-02-28T06:44:22;0.40;61.20
65235;DHT22;51820;48.374;10.930;2023-02-28T06:49:23;0.40;61.30
65235;DHT22;51820;48.374;10.930;2023-02-28T06:56:54;0.20;61.10
65235;DHT22;51820;48.374;10.930;2023-02-28T07:04:24;0.40;61.00
65235;DHT22;51820;48.374;10.930;2023-02-28T07:19:24;0.40;60.80
65235;DHT22;51820;48.374;10.930;2023-02-28T07:36:52;0.40;61.00
65235;DHT22;51820;48.374;10.930;2023-02-28T07:51:53;0.50;60.80
65235;DHT22;51820;48.374;10.930;2023-02-28T08:06:46;0.50;60.80
65235;DHT22;51820;48.374;10.930;2023-02-28T08:09:15;0.50;60.50
65235;DHT22;51820;48.374;10.930;2023-02-28T08:24:06;0.50;60.30
65235;DHT22;51820;48.374;10.930;2023-02-28T08:26:36;0.60;60.20
65235;DHT22;51820;48.374;10.930;2023-02-28T08:34:05;0.60;60.20
65235;DHT22;51820;48.374;10.930;2023-02-28T08:41:31;0.70;60.60
65235;DHT22;51820;48.374;10.930;2023-02-28T08:44:01;4.20;62.70
65235;DHT22;51820;48.374;10.930;2023-02-28T08:46:32;0.70;61.60
65235;DHT22;51820;48.374;10.930;2023-02-28T08:53:59;0.90;60.00
65235;DHT22;51820;48.374;10.930;2023-02-28T08:56:28;0.90;60.20
65235;DHT22;51820;48.374;10.930;2023-02-28T09:01:28;1.00;59.90
65235;DHT22;51820;48.374;10.930;2023-02-28T09:03:57;1.00;59.90
65235;DHT22;51820;48.374;10.930;2023-02-28T09:06:26;1.00;59.40
65235;DHT22;51820;48.374;10.930;2023-02-28T09:08:57;1.00;59.20
65235;DHT22;51820;48.374;10.930;2023-02-28T09:18:53;1.10;58.90
65235;DHT22;51820;48.374;10.930;2023-02-28T09:23:50;1.20;59.00
65235;DHT22;51820;48.374;10.930;2023-02-28T09:26:21;1.20;58.80
65235;DHT22;51820;48.374;10.930;2023-02-28T09:28:51;1.30;58.60
65235;DHT22;51820;48.374;10.930;2023-02-28T09:31:21;1.30;58.40
65235;DHT22;51820;48.374;10.930;2023-02-28T09:33:51;1.40;58.80
65235;DHT22;51820;48.374;10.930;2023-02-28T09:36:21;1.50;58.70
65235;DHT22;51820;48.374;10.930;2023-02-28T09:39:00;-3.30;90.90
65235;DHT22;51820;48.374;10.930;2023-02-28T09:41:37;1.70;58.30
65235;DHT22;51820;48.374;10.930;2023-02-28T09:44:12;1.90;58.40
65235;DHT22;51820;48.374;10.930;2023-02-28T09:46:43;2.00;58.60
65235;DHT22;51820;48.374;10.930;2023-02-28T09:49:16;2.10;58.50
65235;DHT22;51820;48.374;10.930;2023-02-28T09:51:52;2.30;58.40
65235;DHT22;51820;48.374;10.930;2023-02-28T09:54:24;0.90;91.00
65235;DHT22;51820;48.374;10.930;2023-02-28T09:56:57;2.50;57.30
65235;DHT22;51820;48.374;10.930;2023-02-28T09:59:39;2.70;57.20
65235;DHT22;51820;48.374;10.930;2023-02-28T10:02:18;2.80;55.70
65235;DHT22;51820;48.374;10.930;2023-02-28T10:04:51;3.00;57.00
65235;DHT22;51820;48.374;10.930;2023-02-28T10:07:47;3.20;55.50
65235;DHT22;51820;48.374;10.930;2023-02-28T10:10:20;3.40;54.80
65235;DHT22;51820;48.374;10.930;2023-02-28T10:12:52;3.60;55.40
65235;DHT22;51820;48.374;10.930;2023-02-28T10:15:22;3.80;54.20
65235;DHT22;51820;48.374;10.930;2023-02-28T10:17:54;4.00;53.40
65235;DHT22;51820;48.374;10.930;2023-02-28T10:20:38;4.20;52.90
65235;DHT22;51820;48.374;10.930;2023-02-28T10:23:13;4.30;52.30
65235;DHT22;51820;48.374;10.930;2023-02-28T10:25:48;4.40;53.00
65235;DHT22;51820;48.374;10.930;2023-02-28T10:30:49;4.80;52.10
65235;DHT22;51820;48.374;10.930;2023-02-28T10:33:23;4.90;51.30
65235;DHT22;51820;48.374;10.930;2023-02-28T10:35:58;5.00;52.00
65235;DHT22;51820;48.374;10.930;2023-02-28T10:38:31;5.00;50.00
65235;DHT22;51820;48.374;10.930;2023-02-28T10:41:05;5.10;49.80
65235;DHT22;51820;48.374;10.930;2023-02-28T10:43:34;5.00;50.80
65235;DHT22;51820;48.374;10.930;2023-02-28T10:46:11;5.10;50.40
65235;DHT22;51820;48.374;10.930;2023-02-28T10:48:47;5.20;50.60
65235;DHT22;51820;48.374;10.930;2023-02-28T10:51:18;5.30;50.10
65235;DHT22;51820;48.374;10.930;2023-02-28T10:53:52;5.40;50.00
65235;DHT22;51820;48.374;10.930;2023-02-28T10:56:28;5.50;49.80
65235;DHT22;51820;48.374;10.930;2023-02-28T10:59:01;5.70;50.10
65235;DHT22;51820;48.374;10.930;2023-02-28T11:01:41;5.80;49.80
65235;DHT22;51820;48.374;10.930;2023-02-28T11:07:21;5.90;47.50
65235;DHT22;51820;48.374;10.930;2023-02-28T11:09:58;6.10;47.70
65235;DHT22;51820;48.374;10.930;2023-02-28T11:12:30;6.20;47.60
65235;DHT22;51820;48.374;10.930;2023-02-28T11:15:22;6.30;47.90
65235;DHT22;51820;48.374;10.930;2023-02-28T11:17:56;6.40;47.50
65235;DHT22;51820;48.374;10.930;2023-02-28T11:20:27;6.40;46.60
65235;DHT22;51820;48.374;10.930;2023-02-28T11:23:00;6.40;46.60
65235;DHT22;51820;48.374;10.930;2023-02-28T11:25:33;6.40;47.30
65235;DHT22;51820;48.374;10.930;2023-02-28T11:28:24;6.40;45.60
65235;DHT22;51820;48.374;10.930;2023-02-28T11:31:16;6.40;46.40
65235;DHT22;51820;48.374;10.930;2023-02-28T11:33:48;7.20;47.40
65235;DHT22;51820;48.374;10.930;2023-02-28T11:36:19;6.50;47.30
65235;DHT22;51820;48.374;10.930;2023-02-28T11:38:53;6.60;47.10
65235;DHT22;51820;48.374;10.930;2023-02-28T11:41:46;5.80;46.00
65235;DHT22;51820;48.374;10.930;2023-02-28T11:44:48;6.80;46.10
65235;DHT22;51820;48.374;10.930;2023-02-28T11:47:36;7.00;52.20
65235;DHT22;51820;48.374;10.930;2023-02-28T11:57:00;7.50;46.20
65235;DHT22;51820;48.374;10.930;2023-02-28T11:59:48;7.60;44.70
65235;DHT22;51820;48.374;10.930;2023-02-28T12:02:30;7.70;44.40
65235;DHT22;51820;48.374;10.930;2023-02-28T12:05:15;7.80;44.20
65235;DHT22;51820;48.374;10.930;2023-02-28T12:08:02;7.80;42.40
65235;DHT22;51820;48.374;10.930;2023-02-28T12:10:37;9.20;44.40
65235;DHT22;51820;48.374;10.930;2023-02-28T12:13:16;7.90;42.60
65235;DHT22;51820;48.374;10.930;2023-02-28T12:16:11;8.00;43.30
65235;DHT22;51820;48.374;10.930;2023-02-28T12:18:57;8.20;43.20
65235;DHT22;51820;48.374;10.930;2023-02-28T12:21:38;8.40;42.80
65235;DHT22;51820;48.374;10.930;2023-02-28T12:24:26;8.60;42.50
65235;DHT22;51820;48.374;10.930;2023-02-28T12:27:05;8.60;41.20
65235;DHT22;51820;48.374;10.930;2023-02-28T12:29:47;8.70;41.80
65235;DHT22;51820;48.374;10.930;2023-02-28T12:32:25;8.90;42.00
65235;DHT22;51820;48.374;10.930;2023-02-28T12:35:06;9.00;41.20
65235;DHT22;51820;48.374;10.930;2023-02-28T12:37:43;9.10;42.60
65235;DHT22;51820;48.374;10.930;2023-02-28T12:40:19;9.30;40.80
65235;DHT22;51820;48.374;10.930;2023-02-28T12:42:54;9.40;40.80
65235;DHT22;51820;48.374;10.930;2023-02-28T12:45:34;9.60;40.40
65235;DHT22;51820;48.374;10.930;2023-02-28T12:48:14;9.60;39.20
65235;DHT22;51820;48.374;10.930;2023-02-28T12:50:43;9.60;39.60
65235;DHT22;51820;48.374;10.930;2023-02-28T12:53:20;9.60;41.20
65235;DHT22;51820;48.374;10.930;2023-02-28T12:56:01;9.70;40.20
65235;DHT22;51820;48.374;10.930;2023-02-28T12:58:41;9.70;39.60
65235;DHT22;51820;48.374;10.930;2023-02-28T13:04:36;9.50;39.20
65235;DHT22;51820;48.374;10.930;2023-02-28T13:10:18;9.30;39.90
65235;DHT22;51820;48.374;10.930;2023-02-28T13:13:03;9.20;40.00
65235;DHT22;51820;48.374;10.930;2023-02-28T13:15:38;8.50;41.50
65235;DHT22;51820;48.374;10.930;2023-02-28T13:18:35;9.00;40.20
65235;DHT22;51820;48.374;10.930;2023-02-28T13:23:58;8.80;40.70
65235;DHT22;51820;48.374;10.930;2023-02-28T13:31:05;8.60;41.90
65235;DHT22;51820;48.374;10.930;2023-02-28T13:41:49;8.50;43.20
65235;DHT22;51820;48.374;10.930;2023-02-28T13:48:26;8.40;41.20
65235;DHT22;51820;48.374;10.930;2023-02-28T13:51:30;8.40;41.50
65235;DHT22;51820;48.374;10.930;2023-02-28T13:54:42;8.20;41.70
65235;DHT22;51820;48.374;10.930;2023-02-28T13:58:07;8.10;41.30
65235;DHT22;51820;48.374;10.930;2023-02-28T14:01:21;8.00;41.50
65235;DHT22;51820;48.374;10.930;2023-02-28T14:04:56;7.90;41.60
65235;DHT22;51820;48.374;10.930;2023-02-28T14:08:04;8.10;43.40
65235;DHT22;51820;48.374;10.930;2023-02-28T14:11:23;7.60;42.50
65235;DHT22;51820;48.374;10.930;2023-02-28T14:17:37;7.50;43.10
65235;DHT22;51820;48.374;10.930;2023-02-28T14:20:12;5.60;42.60
65235;DHT22;51820;48.374;10.930;2023-02-28T14:22:52;7.50;43.50
65235;DHT22;51820;48.374;10.930;2023-02-28T14:25:31;7.40;44.30
65235;DHT22;51820;48.374;10.930;2023-02-28T14:28:12;7.50;43.20
65235;DHT22;51820;48.374;10.930;2023-02-28T14:30:56;7.50;43.00
65235;DHT22;51820;48.374;10.930;2023-02-28T14:33:43;7.40;42.70
65235;DHT22;51820;48.374;10.930;2023-02-28T14:36:21;7.50;47.00
65235;DHT22;51820;48.374;10.930;2023-02-28T14:38:57;7.50;43.30
65235;DHT22;51820;48.374;10.930;2023-02-28T14:41:30;7.50;43.50
65235;DHT22;51820;48.374;10.930;2023-02-28T14:44:00;7.50;43.70
65235;DHT22;51820;48.374;10.930;2023-02-28T14:46:36;7.50;43.40
65235;DHT22;51820;48.374;10.930;2023-02-28T14:49:13;7.70;43.10
65235;DHT22;51820;48.374;10.930;2023-02-28T14:52:05;7.60;42.80
65235;DHT22;51820;48.374;10.930;2023-02-28T15:02:20;7.40;42.90
65235;DHT22;51820;48.374;10.930;2023-02-28T15:04:55;7.40;43.20
65235;DHT22;51820;48.374;10.930;2023-02-28T15:07:27;7.30;43.50
65235;DHT22;51820;48.374;10.930;2023-02-28T15:10:18;7.30;43.40
65235;DHT22;51820;48.374;10.930;2023-02-28T15:12:52;7.30;43.30
65235;DHT22;51820;48.374;10.930;2023-02-28T15:15:26;7.20;43.50
65235;DHT22;51820;48.374;10.930;2023-02-28T15:18:20;7.20;43.60
65235;DHT22;51820;48.374;10.930;2023-02-28T15:20:51;7.20;43.70
65235;DHT22;51820;48.374;10.930;2023-02-28T15:23:21;7.20;44.10
65235;DHT22;51820;48.374;10.930;2023-02-28T15:25:51;7.10;44.20
65235;DHT22;51820;48.374;10.930;2023-02-28T15:28:22;7.10;44.30
65235;DHT22;51820;48.374;10.930;2023-02-28T15:30:56;7.10;44.00
65235;DHT22;51820;48.374;10.930;2023-02-28T15:33:26;7.10;44.10
65235;DHT22;51820;48.374;10.930;2023-02-28T15:36:06;7.00;43.90
65235;DHT22;51820;48.374;10.930;2023-02-28T15:43:36;6.90;44.10
65235;DHT22;51820;48.374;10.930;2023-02-28T15:46:09;6.80;44.30
65235;DHT22;51820;48.374;10.930;2023-02-28T15:48:43;6.80;44.60
65235;DHT22;51820;48.374;10.930;2023-02-28T15:51:17;6.70;44.70
65235;DHT22;51820;48.374;10.930;2023-02-28T15:53:49;6.70;44.40
65235;DHT22;51820;48.374;10.930;2023-02-28T15:56:24;6.70;44.50
65235;DHT22;51820;48.374;10.930;2023-02-28T15:58:54;6.70;49.60
65235;DHT22;51820;48.374;10.930;2023-02-28T16:01:28;6.60;47.60
65235;DHT22;51820;48.374;10.930;2023-02-28T16:04:14;6.60;44.80
65235;DHT22;51820;48.374;10.930;2023-02-28T16:07:03;6.60;45.10
65235;DHT22;51820;48.374;10.930;2023-02-28T16:09:36;6.50;47.00
65235;DHT22;51820;48.374;10.930;2023-02-28T16:17:20;6.40;45.20
65235;DHT22;51820;48.374;10.930;2023-02-28T16:19:50;6.40;46.60
65235;DHT22;51820;48.374;10.930;2023-02-28T16:22:20;6.30;45.80
65235;DHT22;51820;48.374;10.930;2023-02-28T16:27:23;6.30;46.30
65235;DHT22;51820;48.374;10.930;2023-02-28T16:37:24;6.20;46.60
65235;DHT22;51820;48.374;10.930;2023-02-28T16:39:57;6.10;48.30
65235;DHT22;51820;48.374;10.930;2023-02-28T16:42:28;6.10;47.10
65235;DHT22;51820;48.374;10.930;2023-02-28T16:47:35;6.00;47.20
65235;DHT22;51820;48.374;10.930;2023-02-28T16:50:14;5.90;47.20
65235;DHT22;51820;48.374;10.930;2023-02-28T16:52:45;5.90;47.20
65235;DHT22;51820;48.374;10.930;2023-02-28T16:58:02;5.80;47.50
65235;DHT22;51820;48.374;10.930;2023-02-28T17:08:11;5.70;47.50
65235;DHT22;51820;48.374;10.930;2023-02-28T17:13:13;5.70;47.60
65235;DHT22;51820;48.374;10.930;2023-02-28T17:15:43;5.60;47.60
65235;DHT22;51820;48.374;10.930;2023-02-28T17:18:19;5.60;48.00
65235;DHT22;51820;48.374;10.930;2023-02-28T17:23:19;5.60;47.70
65235;DHT22;51820;48.374;10.930;2023-02-28T17:38:25;5.40;48.40
65235;DHT22;51820;48.374;10.930;2023-02-28T17:43:25;5.20;49.30
65235;DHT22;51820;48.374;10.930;2023-02-28T17:45:54;5.30;49.20
65235;DHT22;51820;48.374;10.930;2023-02-28T17:48:28;5.30;49.00
65235;DHT22;51820;48.374;10.930;2023-02-28T17:53:30;5.20;48.90
65235;DHT22;51820;48.374;10.930;2023-02-28T18:03:31;5.10;50.10
65235;DHT22;51820;48.374;10.930;2023-02-28T18:06:02;5.00;49.80
65235;DHT22;51820;48.374;10.930;2023-02-28T18:08:35;5.10;50.10
65235;DHT22;51820;48.374;10.930;2023-02-28T18:13:45;5.00;52.20
65235;DHT22;51820;48.374;10.930;2023-02-28T18:21:16;5.00;49.90
65235;DHT22;51820;48.374;10.930;2023-02-28T18:23:48;5.00;50.00
65235;DHT22;51820;48.374;10.930;2023-02-28T18:26:18;4.90;51.00
65235;DHT22;51820;48.374;10.930;2023-02-28T18:31:17;4.90;50.10
65235;DHT22;51820;48.374;10.930;2023-02-28T18:33:51;4.80;51.90
65235;DHT22;51820;48.374;10.930;2023-02-28T18:36:23;4.80;50.40
65235;DHT22;51820;48.374;10.930;2023-02-28T18:38:53;4.70;50.80
65235;DHT22;51820;48.374;10.930;2023-02-28T18:46:23;4.70;51.00
65235;DHT22;51820;48.374;10.930;2023-02-28T18:49:00;4.60;53.60
65235;DHT22;51820;48.374;10.930;2023-02-28T18:51:29;4.60;51.80
65235;DHT22;51820;48.374;10.930;2023-02-28T18:53:59;4.20;51.10
65235;DHT22;51820;48.374;10.930;2023-02-28T18:56:34;4.50;53.30
65235;DHT22;51820;48.374;10.930;2023-02-28T18:59:20;4.50;51.40
65235;DHT22;51820;48.374;10.930;2023-02-28T19:02:04;4.50;51.80
65235;DHT22;51820;48.374;10.930;2023-02-28T19:09:52;4.40;52.00
65235;DHT22;51820;48.374;10.930;2023-02-28T19:15:11;5.30;54.00
65235;DHT22;51820;48.374;10.930;2023-02-28T19:20:33;4.40;52.10
65235;DHT22;51820;48.374;10.930;2023-02-28T19:23:09;4.40;52.90
65235;DHT22;51820;48.374;10.930;2023-02-28T19:26:03;4.40;52.00
65235;DHT22;51820;48.374;10.930;2023-02-28T19:28:41;4.30;54.00
65235;DHT22;51820;48.374;10.930;2023-02-28T19:31:17;4.30;52.10
65235;DHT22;51820;48.374;10.930;2023-02-28T19:33:54;4.30;53.50
65235;DHT22;51820;48.374;10.930;2023-02-28T19:36:33;4.20;53.50
65235;DHT22;51820;48.374;10.930;2023-02-28T19:39:33;4.20;52.70
65235;DHT22;51820;48.374;10.930;2023-02-28T19:42:12;6.10;54.00
65235;DHT22;51820;48.374;10.930;2023-02-28T19:52:24;4.00;54.00
65235;DHT22;51820;48.374;10.930;2023-02-28T19:55:00;-0.90;52.70
65235;DHT22;51820;48.374;10.930;2023-02-28T19:57:32;4.10;53.20
65235;DHT22;51820;48.374;10.930;2023-02-28T20:00:06;3.90;60.80
65235;DHT22;51820;48.374;10.930;2023-02-28T20:02:42;4.60;54.80
65235;DHT22;51820;48.374;10.930;2023-02-28T20:12:44;3.80;53.70
65235;DHT22;51820;48.374;10.930;2023-02-28T20:27:48;3.70;54.30
65235;DHT22;51820;48.374;10.930;2023-02-28T20:43:19;3.60;54.80
65235;DHT22;51820;48.374;10.930;2023-02-28T20:50:48;6.90;57.50
65235;DHT22;51820;48.374;10.930;2023-02-28T20:55:57;3.60;55.30
65235;DHT22;51820;48.374;10.930;2023-02-28T20:58:29;1.30;54.40
65235;DHT22;51820;48.374;10.930;2023-02-28T21:00:59;3.60;56.00
65235;DHT22;51820;48.374;10.930;2023-02-28T21:06:00;3.60;55.70
65235;DHT22;51820;48.374;10.930;2023-02-28T21:15:56;3.60;55.70
65235;DHT22;51820;48.374;10.930;2023-02-28T21:20:59;3.60;55.90
65235;DHT22;51820;48.374;10.930;2023-02-28T21:26:00;3.70;56.00
65235;DHT22;51820;48.374;10.930;2023-02-28T21:31:02;3.60;56.20
65235;DHT22;51820;48.374;10.930;2023-02-28T21:36:01;3.70;56.50
65235;DHT22;51820;48.374;10.930;2023-02-28T21:41:03;3.70;56.60
65235;DHT22;51820;48.374;10.930;2023-02-28T21:46:02;3.70;56.90
65235;DHT22;51820;48.374;10.930;2023-02-28T21:51:02;3.70;56.50
65235;DHT22;51820;48.374;10.930;2023-02-28T21:53:32;3.70;57.30
65235;DHT22;51820;48.374;10.930;2023-02-28T22:01:04;3.70;56.90
65235;DHT22;51820;48.374;10.930;2023-02-28T22:03:33;3.70;57.30
65235;DHT22;51820;48.374;10.930;2023-02-28T22:06:08;3.70;57.10
65235;DHT22;51820;48.374;10.930;2023-02-28T22:16:10;3.60;57.60
65235;DHT22;51820;48.374;10.930;2023-02-28T22:18:42;3.60;57.80
65235;DHT22;51820;48.374;10.930;2023-02-28T22:21:12;3.60;57.70
65235;DHT22;51820;48.374;10.930;2023-02-28T22:26:12;3.60;57.60
65235;DHT22;51820;48.374;10.930;2023-02-28T22:31:15;3.60;57.50
65235;DHT22;51820;48.374;10.930;2023-02-28T22:33:45;3.60;57.90
65235;DHT22;51820;48.374;10.930;2023-02-28T22:36:15;3.60;57.80
65235;DHT22;51820;48.374;10.930;2023-02-28T22:38:45;3.60;58.00
65235;DHT22;51820;48.374;10.930;2023-02-28T22:46:13;3.60;57.80
65235;DHT22;51820;48.374;10.930;2023-02-28T22:51:12;3.60;58.00
65235;DHT22;51820;48.374;10.930;2023-02-28T22:53:42;3.60;58.10
65235;DHT22;51820;48.374;10.930;2023-02-28T22:56:12;3.60;58.30
65235;DHT22;51820;48.374;10.930;2023-02-28T23:01:14;3.60;58.30
65235;DHT22;51820;48.374;10.930;2023-02-28T23:06:13;8.00;92.10
65235;DHT22;51820;48.374;10.930;2023-02-28T23:11:15;3.60;58.60
65235;DHT22;51820;48.374;10.930;2023-02-28T23:16:28;3.60;58.60
65235;DHT22;51820;48.374;10.930;2023-02-28T23:18:58;3.60;58.70
65235;DHT22;51820;48.374;10.930;2023-02-28T23:33:51;3.60;58.80
65235;DHT22;51820;48.374;10.930;2023-02-28T23:38:49;3.50;58.70
65235;DHT22;51820;48.374;10.930;2023-02-28T23:41:19;3.40;58.80
65235;DHT22;51820;48.374;10.930;2023-02-28T23:51:26;3.50;59.10
